Time;durP1;ratioP1;P1;durP2;ratioP2;P2;SDS_P1;SDS_P2;PMS_P1;PMS_P2;Temp;Humidity;BMP_temperature;BMP_pressure;BME280_temperature;BME280_humidity;BME280_pressure;Samples;Min_cycle;Max_cycle;Signal;HPM_P1;HPM_P2
2021/08/16 00:01:29;;;;;;;3.55;1.13;;;;;;;17.78;73.22;100115.06;6164481;23;20331;-74
2021/08/16 00:03:54;;;;;;;0.50;0.50;;;;;;;17.86;73.10;100121.75;6141381;23;20016;-72
2021/08/16 00:06:20;;;;;;;0.63;0.63;;;;;;;17.91;72.64;100125.22;6135773;23;20013;-73
2021/08/16 00:08:47;;;;;;;0.60;0.60;;;;;;;17.92;72.64;100132.38;6168416;23;20005;-73
2021/08/16 00:11:12;;;;;;;0.73;0.50;;;;;;;18.02;72.42;100135.97;6167058;23;20008;-73
2021/08/16 00:13:38;;;;;;;0.40;0.40;;;;;;;18.08;71.84;100145.78;6173108;23;20012;-71
2021/08/16 00:16:06;;;;;;;0.70;0.40;;;;;;;18.12;70.44;100152.25;6146376;23;20005;-73
2021/08/16 00:18:33;;;;;;;0.35;0.35;;;;;;;18.10;69.88;100149.81;6168063;23;20009;-74
2021/08/16 00:20:59;;;;;;;0.57;0.47;;;;;;;18.05;69.80;100146.41;6165133;23;20100;-74
2021/08/16 00:23:25;;;;;;;5.47;0.30;;;;;;;18.07;68.93;100163.50;6139223;23;20021;-72
2021/08/16 00:25:50;;;;;;;0.30;0.30;;;;;;;17.99;68.61;100154.06;6114097;23;20013;-72
2021/08/16 00:28:16;;;;;;;0.95;0.32;;;;;;;17.98;68.27;100154.38;6159547;23;20630;-71
2021/08/16 00:30:42;;;;;;;0.80;0.22;;;;;;;18.03;67.32;100159.75;6118912;23;20081;-72
2021/08/16 00:33:08;;;;;;;0.30;0.30;;;;;;;18.02;66.87;100170.00;6165857;23;20001;-72
2021/08/16 00:35:34;;;;;;;0.52;0.30;;;;;;;17.98;66.87;100162.69;6138647;23;20016;-74
2021/08/16 00:38:00;;;;;;;0.32;0.32;;;;;;;17.92;66.10;100160.03;6137429;23;20100;-73
2021/08/16 00:40:26;;;;;;;0.20;0.20;;;;;;;18.01;65.49;100173.91;6112454;23;20379;-73
2021/08/16 00:42:52;;;;;;;0.22;0.22;;;;;;;17.97;65.74;100161.84;6186339;23;20013;-71
2021/08/16 00:45:18;;;;;;;1.30;0.22;;;;;;;17.91;65.19;100166.72;6160286;23;20016;-72
2021/08/16 00:47:44;;;;;;;0.38;0.22;;;;;;;17.90;65.09;100173.41;6137362;23;20021;-72
2021/08/16 00:50:12;;;;;;;0.10;0.10;;;;;;;17.86;65.15;100177.06;6112708;23;20009;-71
2021/08/16 00:52:40;;;;;;;0.28;0.20;;;;;;;17.85;65.12;100169.94;6160728;23;20005;-71
2021/08/16 00:55:09;;;;;;;0.25;0.20;;;;;;;17.98;65.15;100174.53;6139296;23;20620;-72
2021/08/16 00:57:35;;;;;;;0.20;0.20;;;;;;;18.01;64.67;100178.63;6157667;23;20465;-72
2021/08/16 01:00:08;;;;;;;0.20;0.20;;;;;;;18.01;64.51;100178.63;6138877;23;20015;-72
2021/08/16 01:02:35;;;;;;;3.33;0.52;;;;;;;17.96;63.20;100194.22;6162464;23;20013;-73
2021/08/16 01:05:05;;;;;;;0.50;0.30;;;;;;;17.99;63.57;100200.25;6164477;23;20008;-72
2021/08/16 01:07:34;;;;;;;0.60;0.30;;;;;;;17.89;62.72;100193.84;6137392;23;20009;-72
2021/08/16 01:10:04;;;;;;;0.30;0.30;;;;;;;17.87;63.26;100201.66;6164768;23;20053;-73
2021/08/16 01:12:35;;;;;;;0.43;0.30;;;;;;;17.81;63.44;100197.41;6138686;23;20009;-74
2021/08/16 01:15:01;;;;;;;0.40;0.30;;;;;;;17.71;63.06;100192.16;6161573;23;20001;-72
2021/08/16 01:17:28;;;;;;;0.25;0.20;;;;;;;17.63;62.42;100197.34;6138334;23;20016;-73
2021/08/16 01:19:54;;;;;;;0.55;0.38;;;;;;;17.56;62.56;100202.50;6162389;23;20008;-73
2021/08/16 01:22:20;;;;;;;0.20;0.20;;;;;;;17.60;63.02;100203.50;6163489;23;20009;-73
2021/08/16 01:24:45;;;;;;;0.73;0.30;;;;;;;17.61;62.92;100196.84;6163478;23;20065;-73
2021/08/16 01:27:12;;;;;;;0.55;0.20;;;;;;;17.60;62.42;100197.97;6163930;23;20051;-74
2021/08/16 01:29:39;;;;;;;0.55;0.40;;;;;;;17.56;62.25;100205.28;6136245;23;20019;-75
2021/08/16 01:32:06;;;;;;;0.77;0.43;;;;;;;17.51;61.99;100199.91;6139566;23;20033;-71
2021/08/16 01:34:33;;;;;;;0.28;0.20;;;;;;;17.47;62.29;100204.44;6141805;23;19993;-76
2021/08/16 01:36:59;;;;;;;0.20;0.20;;;;;;;17.43;61.65;100206.19;6165297;23;20024;-73
2021/08/16 01:39:28;;;;;;;0.20;0.20;;;;;;;17.38;61.64;100204.38;6165079;23;20065;-74
2021/08/16 01:41:56;;;;;;;0.80;0.30;;;;;;;17.32;61.91;100215.88;6160668;23;20007;-72
2021/08/16 01:44:23;;;;;;;1.75;0.57;;;;;;;17.26;61.68;100209.69;6140110;23;20013;-73
2021/08/16 01:46:50;;;;;;;0.30;0.20;;;;;;;17.19;61.38;100198.28;6136735;23;20012;-75
2021/08/16 01:49:16;;;;;;;0.32;0.32;;;;;;;17.19;61.84;100204.59;6166559;23;20008;-75
2021/08/16 01:51:44;;;;;;;0.47;0.40;;;;;;;17.06;61.56;100197.22;6142627;23;20028;-75
2021/08/16 01:54:11;;;;;;;0.35;0.20;;;;;;;17.00;62.01;100196.53;6140829;23;20005;-73
2021/08/16 01:56:38;;;;;;;0.20;0.20;;;;;;;17.02;62.04;100210.03;6166000;23;20028;-74
2021/08/16 01:59:05;;;;;;;0.30;0.30;;;;;;;16.93;61.85;100208.00;6173319;23;21003;-74
2021/08/16 02:01:31;;;;;;;0.55;0.30;;;;;;;16.86;62.10;100213.13;6126735;23;20043;-74
2021/08/16 02:03:57;;;;;;;0.28;0.20;;;;;;;16.80;62.26;100202.53;6131875;23;19996;-73
2021/08/16 02:06:23;;;;;;;0.70;0.70;;;;;;;16.72;62.22;100202.13;6150937;23;20016;-73
2021/08/16 02:08:50;;;;;;;0.60;0.40;;;;;;;16.70;62.50;100209.91;6167951;23;20033;-74
2021/08/16 02:11:16;;;;;;;1.00;0.30;;;;;;;16.69;62.70;100210.22;6192583;23;20056;-73
2021/08/16 02:13:42;;;;;;;0.45;0.30;;;;;;;16.70;62.71;100214.63;6191298;23;20028;-72
2021/08/16 02:16:07;;;;;;;0.22;0.20;;;;;;;16.65;62.69;100212.00;6190855;23;20004;-73
2021/08/16 02:18:33;;;;;;;0.35;0.20;;;;;;;16.67;62.63;100213.28;6138715;23;20009;-74
2021/08/16 02:20:58;;;;;;;1.23;0.50;;;;;;;16.64;62.49;100221.41;6163204;23;20017;-72
2021/08/16 02:23:24;;;;;;;0.20;0.20;;;;;;;16.57;62.43;100214.38;6187240;23;20009;-73
2021/08/16 02:25:50;;;;;;;0.45;0.45;;;;;;;16.49;62.64;100214.28;6137678;23;20020;-74
2021/08/16 02:28:16;;;;;;;0.30;0.30;;;;;;;16.38;62.95;100220.03;6163929;23;20070;-74
2021/08/16 02:30:46;;;;;;;0.50;0.35;;;;;;;16.27;63.22;100223.34;6162010;23;20005;-69
2021/08/16 02:33:13;;;;;;;0.15;0.15;;;;;;;16.14;62.96;100219.47;6188397;23;20084;-73
2021/08/16 02:35:40;;;;;;;1.33;0.20;;;;;;;16.02;63.31;100229.06;6188860;23;20063;-72
2021/08/16 02:38:06;;;;;;;0.40;0.30;;;;;;;15.94;63.79;100240.00;6163396;23;20177;-72
2021/08/16 02:40:32;;;;;;;0.20;0.20;;;;;;;15.83;63.67;100236.66;6162124;23;20419;-73
2021/08/16 02:42:58;;;;;;;0.47;0.40;;;;;;;15.75;64.03;100234.56;6163010;23;20036;-72
2021/08/16 02:45:25;;;;;;;0.93;0.52;;;;;;;15.63;64.25;100232.31;6190251;23;20100;-72
2021/08/16 02:47:51;;;;;;;0.50;0.50;;;;;;;15.49;64.44;100222.09;6138726;23;20019;-72
2021/08/16 02:50:17;;;;;;;0.20;0.20;;;;;;;15.47;64.66;100223.50;6160102;23;20001;-72
2021/08/16 02:52:43;;;;;;;0.60;0.30;;;;;;;15.44;64.77;100235.94;6195832;23;20008;-72
2021/08/16 02:55:09;;;;;;;1.05;0.65;;;;;;;15.37;64.94;100235.53;6118314;23;20016;-71
2021/08/16 02:57:35;;;;;;;0.70;0.57;;;;;;;15.29;64.96;100239.00;6165920;23;20068;-74
2021/08/16 03:00:01;;;;;;;0.32;0.32;;;;;;;15.26;65.38;100247.84;6189614;23;20008;-71
2021/08/16 03:02:26;;;;;;;1.08;0.40;;;;;;;15.20;65.74;100252.63;6159561;23;20499;-70
2021/08/16 03:04:53;;;;;;;0.13;0.13;;;;;;;15.14;65.65;100257.41;6186940;23;20436;-71
2021/08/16 03:07:18;;;;;;;1.13;0.30;;;;;;;15.07;65.93;100245.97;6183658;23;20009;-73
2021/08/16 03:09:44;;;;;;;1.30;0.40;;;;;;;15.00;65.95;100254.59;6162137;23;20009;-72
2021/08/16 03:12:10;;;;;;;0.70;0.25;;;;;;;14.98;65.98;100272.53;6161954;23;20009;-74
2021/08/16 03:14:36;;;;;;;0.50;0.50;;;;;;;14.93;66.66;100270.66;6136220;23;20013;-73
2021/08/16 03:17:01;;;;;;;0.40;0.40;;;;;;;14.87;66.47;100260.84;6189485;23;20111;-73
2021/08/16 03:19:27;;;;;;;1.33;0.40;;;;;;;14.79;66.75;100267.88;6139090;23;20016;-71
2021/08/16 03:21:53;;;;;;;0.50;0.50;;;;;;;14.69;66.99;100264.44;6156340;23;20065;-72
2021/08/16 03:24:19;;;;;;;0.70;0.35;;;;;;;14.69;66.64;100279.03;6138310;23;20035;-71
2021/08/16 03:26:45;;;;;;;0.82;0.40;;;;;;;14.59;67.24;100276.38;6160787;23;20016;-71
2021/08/16 03:29:11;;;;;;;0.40;0.40;;;;;;;14.56;67.35;100288.81;6160380;23;20043;-72
2021/08/16 03:31:37;;;;;;;0.17;0.17;;;;;;;14.48;67.68;100290.28;6114615;23;20001;-72
2021/08/16 03:34:04;;;;;;;0.30;0.30;;;;;;;14.48;67.62;100301.28;6161675;23;20416;-73
2021/08/16 03:36:30;;;;;;;0.45;0.40;;;;;;;14.44;67.30;100302.16;6162155;23;20415;-72
2021/08/16 03:38:58;;;;;;;0.30;0.30;;;;;;;14.36;67.33;100295.38;6163066;23;20403;-72
2021/08/16 03:41:24;;;;;;;1.10;0.47;;;;;;;14.40;68.17;100301.13;6163024;23;20016;-73
2021/08/16 03:43:50;;;;;;;3.28;0.50;;;;;;;14.33;67.60;100295.97;6164435;23;19997;-72
2021/08/16 03:46:16;;;;;;;0.30;0.30;;;;;;;14.26;68.18;100290.00;6164291;23;20009;-72
2021/08/16 03:48:42;;;;;;;0.80;0.47;;;;;;;14.24;68.09;100297.75;6114350;23;20016;-71
2021/08/16 03:51:08;;;;;;;1.35;0.50;;;;;;;14.20;68.16;100291.19;6117261;23;20016;-70
2021/08/16 03:53:33;;;;;;;1.85;0.90;;;;;;;14.09;68.12;100290.47;6138976;23;20009;-71
2021/08/16 03:55:59;;;;;;;2.30;0.75;;;;;;;14.10;68.98;100309.44;6117007;23;20049;-72
2021/08/16 03:58:25;;;;;;;0.68;0.40;;;;;;;14.02;68.78;100301.84;6140774;23;20005;-72
2021/08/16 04:00:51;;;;;;;4.40;0.70;;;;;;;13.97;68.85;100310.13;6115243;23;20005;-72
2021/08/16 04:03:16;;;;;;;0.50;0.50;;;;;;;13.98;69.85;100325.53;6114587;23;20055;-71
2021/08/16 04:05:42;;;;;;;0.80;0.73;;;;;;;13.97;69.43;100321.13;6136237;23;20016;-71
2021/08/16 04:08:08;;;;;;;1.38;1.13;;;;;;;13.98;69.70;100324.72;6164577;23;20067;-72
2021/08/16 04:10:34;;;;;;;0.77;0.77;;;;;;;13.95;69.43;100331.59;6190148;23;20012;-71
2021/08/16 04:13:00;;;;;;;1.10;1.00;;;;;;;13.94;70.29;100328.06;6116854;23;20015;-71
2021/08/16 04:15:26;;;;;;;5.00;1.55;;;;;;;13.92;69.76;100332.19;6136477;23;20069;-72
2021/08/16 04:17:52;;;;;;;1.15;1.02;;;;;;;13.89;70.24;100319.03;6164641;23;20011;-72
2021/08/16 04:20:19;;;;;;;1.33;1.23;;;;;;;13.91;70.81;100338.78;6163794;23;20005;-72
2021/08/16 04:22:45;;;;;;;2.78;1.13;;;;;;;13.88;71.00;100336.63;6161058;23;20495;-72
2021/08/16 04:25:14;;;;;;;1.30;0.90;;;;;;;13.80;70.83;100340.84;6140453;23;20056;-71
2021/08/16 04:27:40;;;;;;;1.20;1.10;;;;;;;13.78;70.59;100332.88;6164345;23;20091;-72
2021/08/16 04:30:09;;;;;;;2.42;0.98;;;;;;;13.86;69.97;100344.34;6163907;23;20000;-73
2021/08/16 04:32:35;;;;;;;0.70;0.70;;;;;;;13.84;69.91;100350.13;6115377;23;20017;-71
2021/08/16 04:35:01;;;;;;;1.55;1.15;;;;;;;13.78;70.44;100334.78;6140445;23;20324;-72
2021/08/16 04:37:27;;;;;;;2.05;1.23;;;;;;;13.85;70.05;100342.72;6137059;23;20036;-73
2021/08/16 04:39:53;;;;;;;3.03;1.35;;;;;;;13.85;70.50;100359.19;6139338;23;20443;-72
2021/08/16 04:42:20;;;;;;;1.58;0.98;;;;;;;13.83;69.56;100355.91;6143192;23;20017;-73
2021/08/16 04:44:48;;;;;;;1.45;1.00;;;;;;;13.79;69.86;100341.94;6164089;23;20013;-75
2021/08/16 04:47:15;;;;;;;1.05;0.88;;;;;;;13.80;69.90;100351.81;6143879;23;20029;-74
2021/08/16 04:49:41;;;;;;;1.58;1.48;;;;;;;13.72;70.29;100350.50;6119717;23;20095;-72
2021/08/16 04:52:08;;;;;;;1.05;0.98;;;;;;;13.74;70.36;100359.28;6119090;23;20044;-72
2021/08/16 04:54:34;;;;;;;3.00;1.38;;;;;;;13.74;70.30;100362.03;6150373;23;19997;-73
2021/08/16 04:57:04;;;;;;;2.78;1.10;;;;;;;13.73;70.36;100360.41;6130667;23;20039;-71
2021/08/16 04:59:29;;;;;;;2.88;1.15;;;;;;;13.77;70.42;100382.63;6135892;23;20059;-71
2021/08/16 05:01:55;;;;;;;1.75;0.95;;;;;;;13.76;70.69;100379.06;6144582;23;20017;-71
2021/08/16 05:04:22;;;;;;;0.95;0.95;;;;;;;13.68;70.76;100357.72;6120557;23;19993;-74
2021/08/16 05:06:48;;;;;;;4.97;1.60;;;;;;;13.69;71.27;100364.81;6118284;23;20494;-72
2021/08/16 05:09:14;;;;;;;1.15;1.08;;;;;;;13.69;71.92;100367.56;6144409;23;20013;-72
2021/08/16 05:11:41;;;;;;;4.07;1.10;;;;;;;13.72;72.19;100374.44;6115720;23;20008;-70
2021/08/16 05:14:07;;;;;;;1.63;1.10;;;;;;;13.70;71.88;100369.22;6166657;23;20097;-72
2021/08/16 05:16:35;;;;;;;1.33;1.15;;;;;;;13.71;72.15;100372.78;6141784;23;20012;-72
2021/08/16 05:19:01;;;;;;;6.22;0.95;;;;;;;13.73;72.04;100376.88;6167663;23;20016;-72
2021/08/16 05:21:30;;;;;;;6.45;1.60;;;;;;;13.71;72.77;100386.50;6167293;23;20071;-71
2021/08/16 05:23:57;;;;;;;1.58;1.45;;;;;;;13.69;72.91;100370.31;6163439;23;20089;-72
2021/08/16 05:26:23;;;;;;;5.30;1.33;;;;;;;13.76;72.20;100387.28;6117199;23;20013;-71
2021/08/16 05:28:48;;;;;;;2.65;1.40;;;;;;;13.72;72.19;100371.69;6112821;23;20020;-73
2021/08/16 05:31:15;;;;;;;1.88;1.23;;;;;;;13.74;72.07;100380.44;6139683;23;20039;-70
2021/08/16 05:33:42;;;;;;;2.00;1.02;;;;;;;13.83;72.50;100386.13;6139862;23;20012;-71
2021/08/16 05:36:08;;;;;;;1.88;1.67;;;;;;;13.84;72.54;100387.78;6114970;23;20009;-68
2021/08/16 05:38:33;;;;;;;1.75;1.65;;;;;;;13.84;72.79;100394.09;6137693;23;20099;-71
2021/08/16 05:40:59;;;;;;;4.13;2.00;;;;;;;13.84;73.02;100383.09;6134124;23;20067;-72
2021/08/16 05:43:25;;;;;;;3.13;2.70;;;;;;;13.87;72.71;100387.19;6116426;23;20020;-70
2021/08/16 05:45:50;;;;;;;2.58;2.40;;;;;;;13.86;73.29;100391.09;6138167;23;20013;-70
2021/08/16 05:48:17;;;;;;;4.03;2.97;;;;;;;13.89;72.72;100393.25;6117684;23;20367;-70
2021/08/16 05:50:44;;;;;;;9.13;3.95;;;;;;;13.92;72.76;100398.97;6117770;23;20045;-69
2021/08/16 05:53:10;;;;;;;8.32;3.50;;;;;;;13.92;72.91;100400.91;6162750;23;20055;-70
2021/08/16 05:55:36;;;;;;;4.05;3.63;;;;;;;13.93;73.47;100397.03;6138630;23;20013;-70
2021/08/16 05:58:02;;;;;;;8.48;4.50;;;;;;;13.97;73.71;100409.09;6114724;23;20120;-72
2021/08/16 06:00:28;;;;;;;7.75;4.13;;;;;;;13.96;73.08;100407.47;6139895;23;20009;-70
2021/08/16 06:02:54;;;;;;;5.45;4.40;;;;;;;14.00;73.75;100414.00;6162042;23;20005;-70
2021/08/16 06:05:19;;;;;;;3.88;3.63;;;;;;;14.05;73.21;100421.41;6162823;23;20065;-71
2021/08/16 06:07:46;;;;;;;10.68;3.83;;;;;;;14.09;73.96;100428.78;6115212;23;20013;-71
2021/08/16 06:10:13;;;;;;;7.38;3.90;;;;;;;14.20;73.30;100429.50;6136347;23;20008;-70
2021/08/16 06:12:39;;;;;;;6.28;4.70;;;;;;;14.21;73.58;100431.16;6136436;23;20175;-72
2021/08/16 06:15:06;;;;;;;5.63;5.18;;;;;;;14.28;73.60;100436.28;6139004;23;20428;-72
2021/08/16 06:17:33;;;;;;;7.22;4.80;;;;;;;14.37;73.31;100444.72;6139773;23;20009;-72
2021/08/16 06:19:59;;;;;;;11.98;6.05;;;;;;;14.45;72.53;100446.84;6163562;23;20047;-73
2021/08/16 06:22:24;;;;;;;7.25;5.28;;;;;;;14.60;71.99;100449.47;6115108;23;20029;-71
2021/08/16 06:24:50;;;;;;;8.30;6.75;;;;;;;14.69;71.75;100460.66;6138652;23;20013;-71
2021/08/16 06:27:16;;;;;;;9.88;7.10;;;;;;;14.78;71.63;100460.84;6137211;23;20420;-69
2021/08/16 06:29:42;;;;;;;13.38;7.55;;;;;;;14.83;71.68;100469.03;6119499;23;20013;-78
2021/08/16 06:32:08;;;;;;;7.47;6.28;;;;;;;14.88;71.05;100459.88;6142458;23;20005;-76
2021/08/16 06:34:39;;;;;;;7.43;6.57;;;;;;;15.00;71.00;100468.56;6163556;23;20048;-71
2021/08/16 06:37:05;;;;;;;7.50;6.78;;;;;;;15.06;70.94;100467.38;6116531;23;20012;-71
2021/08/16 06:39:32;;;;;;;7.03;6.47;;;;;;;15.19;70.22;100471.34;6140308;23;20008;-71
2021/08/16 06:42:01;;;;;;;10.95;7.90;;;;;;;15.32;69.91;100475.31;6145557;23;20013;-73
2021/08/16 06:44:27;;;;;;;8.93;6.88;;;;;;;15.39;69.96;100474.91;6121174;23;20013;-72
2021/08/16 06:46:57;;;;;;;14.50;9.35;;;;;;;15.46;69.20;100480.88;6169676;23;20024;-71
2021/08/16 06:49:25;;;;;;;13.15;9.73;;;;;;;15.40;68.72;100463.59;6138498;23;20091;-73
2021/08/16 06:51:51;;;;;;;13.43;9.13;;;;;;;15.56;68.58;100489.00;6165064;23;20056;-71
2021/08/16 06:54:23;;;;;;;13.07;9.23;;;;;;;15.66;68.46;100490.78;6114744;23;20021;-71
2021/08/16 06:56:49;;;;;;;27.80;11.20;;;;;;;15.80;67.89;100500.00;6113998;23;20024;-71
2021/08/16 06:59:15;;;;;;;11.15;10.07;;;;;;;15.90;67.50;100489.91;6137999;23;20436;-73
2021/08/16 07:01:42;;;;;;;21.58;10.23;;;;;;;16.05;67.19;100492.44;6136422;23;20383;-72
2021/08/16 07:04:09;;;;;;;16.13;11.57;;;;;;;16.27;66.67;100510.28;6137470;23;20012;-72
2021/08/16 07:06:34;;;;;;;18.33;11.48;;;;;;;16.34;65.66;100508.75;6111009;23;20024;-72
2021/08/16 07:09:02;;;;;;;19.00;11.05;;;;;;;16.42;64.53;100517.47;6162509;23;20017;-73
2021/08/16 07:11:28;;;;;;;16.90;11.60;;;;;;;16.45;64.58;100512.16;6161548;23;20011;-71
2021/08/16 07:16:59;;;;;;;15.73;11.52;;;;;;;16.47;63.77;100520.13;6175368;23;20028;-72
2021/08/16 07:19:24;;;;;;;21.13;11.15;;;;;;;16.44;63.81;100521.56;6186027;23;20688;-73
2021/08/16 07:21:50;;;;;;;12.48;11.25;;;;;;;16.40;63.51;100520.53;6165900;23;20422;-73
2021/08/16 07:24:16;;;;;;;14.20;11.82;;;;;;;16.43;63.60;100522.69;6142063;23;20402;-75
2021/08/16 07:26:41;;;;;;;21.15;12.20;;;;;;;16.50;63.38;100523.09;6191598;23;20032;-73
2021/08/16 07:29:07;;;;;;;22.17;13.00;;;;;;;16.54;63.29;100532.44;6164445;23;20017;-72
2021/08/16 07:31:32;;;;;;;18.75;12.18;;;;;;;16.52;63.06;100537.41;6164789;23;20005;-70
2021/08/16 07:33:58;;;;;;;14.65;11.82;;;;;;;16.61;63.06;100536.72;6137850;23;20023;-72
2021/08/16 07:36:23;;;;;;;15.05;11.60;;;;;;;16.72;63.10;100532.66;6187485;23;20143;-71
2021/08/16 07:38:49;;;;;;;21.77;12.35;;;;;;;16.87;63.11;100535.16;6163159;23;20005;-71
2021/08/16 07:41:14;;;;;;;17.35;13.15;;;;;;;16.82;62.14;100521.41;6160784;23;20222;-70
2021/08/16 07:43:40;;;;;;;21.30;12.88;;;;;;;16.85;61.51;100536.53;6114246;23;20013;-71
2021/08/16 07:46:06;;;;;;;17.98;13.02;;;;;;;16.87;61.41;100546.19;6138562;23;20009;-70
2021/08/16 07:48:36;;;;;;;19.02;13.88;;;;;;;16.98;61.15;100529.41;6164547;23;19997;-74
2021/08/16 07:51:04;;;;;;;22.55;14.57;;;;;;;17.08;60.22;100523.69;6165366;23;20428;-73
2021/08/16 07:53:33;;;;;;;26.30;14.13;;;;;;;17.23;60.07;100542.72;6164134;23;20005;-74
2021/08/16 07:56:03;;;;;;;23.55;14.30;;;;;;;17.21;59.24;100538.63;6165083;23;20009;-74
2021/08/16 07:58:28;;;;;;;18.70;14.38;;;;;;;17.27;59.69;100537.38;6164512;23;20017;-72
2021/08/16 08:00:54;;;;;;;26.63;15.50;;;;;;;17.28;59.34;100539.84;6112334;23;20313;-72
2021/08/16 08:03:19;;;;;;;18.27;12.52;;;;;;;17.46;59.62;100540.03;6084670;23;20689;-72
2021/08/16 08:05:46;;;;;;;20.70;13.18;;;;;;;17.57;59.37;100541.44;6085255;23;20071;-71
2021/08/16 08:08:11;;;;;;;27.02;14.48;;;;;;;17.76;59.35;100543.25;6052435;23;20013;-71
2021/08/16 08:10:37;;;;;;;16.88;13.40;;;;;;;17.86;58.70;100548.53;6047510;23;20009;-72
2021/08/16 08:13:03;;;;;;;22.77;14.15;;;;;;;17.78;57.13;100554.81;6103944;23;20028;-70
2021/08/16 08:15:28;;;;;;;25.15;13.68;;;;;;;17.90;58.36;100557.91;6114411;23;20033;-74
2021/08/16 08:17:54;;;;;;;13.82;12.23;;;;;;;18.06;58.00;100557.50;6137451;23;20016;-71
2021/08/16 08:20:19;;;;;;;16.70;13.30;;;;;;;18.24;57.20;100559.28;6188981;23;20009;-71
2021/08/16 08:22:45;;;;;;;21.15;14.70;;;;;;;18.27;55.97;100580.00;6136494;23;20016;-72
2021/08/16 08:25:11;;;;;;;15.05;13.32;;;;;;;18.29;56.42;100566.66;6162830;23;20013;-71
2021/08/16 08:27:37;;;;;;;17.80;12.70;;;;;;;18.45;55.99;100567.09;6136068;23;20017;-71
2021/08/16 08:30:04;;;;;;;14.43;11.57;;;;;;;18.69;55.28;100568.69;6135829;23;20067;-69
2021/08/16 08:32:30;;;;;;;17.17;13.20;;;;;;;18.87;53.37;100578.75;6162140;23;20009;-73
2021/08/16 08:34:56;;;;;;;17.52;13.35;;;;;;;18.97;54.00;100575.72;6115194;23;20005;-71
2021/08/16 08:37:21;;;;;;;18.02;13.48;;;;;;;19.10;53.09;100578.69;6155508;23;20016;-71
2021/08/16 08:39:48;;;;;;;18.50;11.80;;;;;;;19.22;54.05;100587.22;6111827;23;20420;-70
2021/08/16 08:42:14;;;;;;;15.57;13.25;;;;;;;19.28;53.46;100583.16;6138720;23;20337;-71
2021/08/16 08:44:41;;;;;;;23.00;12.60;;;;;;;19.26;53.30;100579.91;6160816;23;20021;-71
2021/08/16 08:47:13;;;;;;;21.75;13.13;;;;;;;19.12;51.56;100577.22;6136017;23;20431;-74
2021/08/16 08:49:50;;;;;;;14.80;12.82;;;;;;;19.12;52.67;100598.59;6162827;23;20313;-74
2021/08/16 08:52:21;;;;;;;12.90;11.63;;;;;;;19.16;52.76;100599.59;6164080;23;20001;-74
2021/08/16 08:54:55;;;;;;;20.90;13.23;;;;;;;19.26;52.09;100587.38;6164825;23;20013;-72
2021/08/16 08:57:21;;;;;;;23.70;12.95;;;;;;;19.34;50.97;100604.06;6162265;23;20005;-73
2021/08/16 08:59:46;;;;;;;16.05;12.18;;;;;;;19.45;51.11;100606.53;6163293;23;20019;-71
2021/08/16 09:02:12;;;;;;;18.00;12.00;;;;;;;19.64;51.14;100604.31;6161497;23;20005;-73
2021/08/16 09:04:52;;;;;;;14.15;12.00;;;;;;;19.99;51.61;100615.50;6163456;23;20087;-73
2021/08/16 09:07:32;;;;;;;16.95;13.13;;;;;;;20.19;49.53;100613.22;6185487;23;20005;-71
2021/08/16 09:09:57;;;;;;;12.73;10.60;;;;;;;20.31;49.78;100616.16;6161410;23;20019;-73
2021/08/16 09:12:35;;;;;;;14.27;11.40;;;;;;;20.47;49.74;100612.88;6162940;23;20012;-73
2021/08/16 09:15:39;;;;;;;17.92;11.50;;;;;;;20.61;48.80;100605.16;6163504;23;20013;-74
2021/08/16 09:18:05;;;;;;;12.88;10.95;;;;;;;20.68;48.62;100608.28;6160221;23;20056;-72
2021/08/16 09:20:36;;;;;;;17.42;12.65;;;;;;;21.10;49.22;100608.50;6187852;23;20016;-72
2021/08/16 09:23:29;;;;;;;16.33;11.32;;;;;;;21.37;47.25;100628.66;6138009;23;20009;-72
2021/08/16 09:25:59;;;;;;;12.32;10.70;;;;;;;21.39;46.32;100637.50;6162235;23;20009;-73
2021/08/16 09:28:32;;;;;;;14.68;11.38;;;;;;;21.36;46.77;100638.16;6161825;23;20009;-72
2021/08/16 09:31:19;;;;;;;15.00;11.07;;;;;;;21.39;45.73;100640.28;6132781;23;20009;-72
2021/08/16 09:33:56;;;;;;;13.52;10.75;;;;;;;21.16;45.96;100633.31;6138644;23;20451;-72
2021/08/16 09:36:39;;;;;;;14.60;12.10;;;;;;;21.20;46.23;100640.69;6160925;23;20035;-70
2021/08/16 09:39:19;;;;;;;14.93;10.45;;;;;;;21.29;46.16;100643.44;6135879;23;20067;-72
2021/08/16 09:41:45;;;;;;;10.23;9.40;;;;;;;21.42;45.54;100649.91;6186048;23;20479;-72
2021/08/16 09:44:14;;;;;;;10.43;9.50;;;;;;;21.51;44.69;100639.59;6161078;23;20005;-70
2021/08/16 09:46:40;;;;;;;10.10;9.10;;;;;;;21.67;44.68;100652.94;6160375;23;20005;-71
2021/08/16 09:49:08;;;;;;;15.63;9.75;;;;;;;21.71;44.87;100660.28;6158799;23;20009;-71
2021/08/16 09:51:35;;;;;;;11.38;9.57;;;;;;;21.82;44.80;100643.19;6157584;23;20061;-72
2021/08/16 09:54:02;;;;;;;9.75;8.77;;;;;;;21.94;44.21;100646.06;6159521;23;20040;-71
2021/08/16 09:56:29;;;;;;;9.57;8.68;;;;;;;22.01;43.68;100654.69;6160780;23;20387;-71
2021/08/16 09:58:55;;;;;;;9.70;7.65;;;;;;;22.00;44.04;100650.25;6162866;23;20428;-72
2021/08/16 10:01:22;;;;;;;8.88;8.02;;;;;;;22.05;43.66;100657.59;6163154;23;20029;-71
2021/08/16 10:03:48;;;;;;;10.85;9.85;;;;;;;;;;6133392;23;20021;-72
2021/08/16 10:06:15;;;;;;;10.07;9.20;;;;;;;22.07;43.19;100663.66;6135657;23;20028;-70
2021/08/16 10:08:53;;;;;;;9.60;8.45;;;;;;;22.31;43.91;100660.19;6158773;23;20492;-70
2021/08/16 10:11:20;;;;;;;8.60;8.00;;;;;;;22.68;43.55;100668.75;6160358;23;20011;-72
2021/08/16 10:13:52;;;;;;;9.15;8.20;;;;;;;23.16;43.38;100678.47;6185165;23;20060;-73
2021/08/16 10:16:33;;;;;;;8.68;7.78;;;;;;;23.44;41.65;100683.38;6160876;23;20064;-73
2021/08/16 10:19:02;;;;;;;15.27;9.05;;;;;;;23.37;39.96;100683.13;6157926;23;20016;-71
2021/08/16 10:21:28;;;;;;;9.88;7.57;;;;;;;23.30;40.47;100688.47;6160875;23;20012;-72
2021/08/16 10:23:55;;;;;;;10.57;7.45;;;;;;;23.39;40.12;100680.00;6134226;23;20013;-72
2021/08/16 10:26:30;;;;;;;8.15;7.20;;;;;;;24.01;40.57;100681.66;6136816;23;20008;-73
2021/08/16 10:29:02;;;;;;;7.93;7.13;;;;;;;24.48;39.11;100697.00;6156720;23;20016;-72
2021/08/16 10:31:42;;;;;;;8.77;7.88;;;;;;;24.95;38.77;100689.16;6159875;23;20079;-72
2021/08/16 10:34:08;;;;;;;10.55;7.45;;;;;;;25.53;37.18;100692.31;6157502;23;20019;-74
2021/08/16 10:36:40;;;;;;;7.22;6.55;;;;;;;25.93;36.49;100702.50;6113994;23;20009;-79
2021/08/16 10:39:05;;;;;;;10.73;7.07;;;;;;;25.83;34.92;100703.06;6163519;23;20420;-76
2021/08/16 10:41:42;;;;;;;7.15;6.75;;;;;;;25.66;35.38;100703.44;6140171;23;20013;-76
2021/08/16 10:44:16;;;;;;;10.23;6.35;;;;;;;25.58;36.27;100708.03;6139954;23;20047;-76
2021/08/16 10:46:45;;;;;;;6.82;6.43;;;;;;;25.59;35.53;100704.88;6162671;23;20092;-76
2021/08/16 10:49:13;;;;;;;9.40;6.60;;;;;;;25.56;35.88;100694.38;6163201;23;20412;-77
2021/08/16 10:51:48;;;;;;;6.43;5.82;;;;;;;25.75;35.67;100701.25;6139288;23;20067;-74
2021/08/16 10:54:26;;;;;;;5.95;5.60;;;;;;;25.86;36.15;100719.13;6192934;23;20004;-75
2021/08/16 10:56:54;;;;;;;6.25;5.82;;;;;;;26.07;35.19;100710.44;6165806;23;20009;-73
2021/08/16 10:59:22;;;;;;;9.77;5.97;;;;;;;26.42;34.90;100712.41;6195611;23;20000;-73
2021/08/16 11:01:50;;;;;;;7.05;6.47;;;;;;;26.55;33.98;100703.88;6120989;23;20021;-74
2021/08/16 11:04:30;;;;;;;7.25;6.60;;;;;;;26.53;33.03;100712.63;6196133;23;20001;-73
2021/08/16 11:07:07;;;;;;;6.20;5.88;;;;;;;26.53;32.80;100707.03;6191166;23;20416;-72
2021/08/16 11:09:35;;;;;;;7.88;6.13;;;;;;;26.60;33.49;100718.38;6189701;23;20029;-74
2021/08/16 11:12:06;;;;;;;5.90;5.00;;;;;;;26.63;32.73;100726.09;6168149;23;20028;-72
2021/08/16 11:14:35;;;;;;;5.22;4.82;;;;;;;26.52;33.37;100727.84;6171497;23;20005;-74
2021/08/16 11:17:04;;;;;;;13.52;6.05;;;;;;;26.39;32.70;100727.16;6174810;23;20016;-74
2021/08/16 11:19:47;;;;;;;6.90;6.28;;;;;;;25.87;32.76;100737.53;6205600;23;20037;-71
2021/08/16 11:22:15;;;;;;;9.18;6.32;;;;;;;25.23;33.68;100723.53;6193076;23;20622;-71
2021/08/16 11:24:44;;;;;;;6.85;6.28;;;;;;;24.73;34.84;100727.72;6189868;23;20032;-73
2021/08/16 11:27:16;;;;;;;8.35;6.10;;;;;;;24.26;35.38;100729.09;6191147;23;20362;-71